createdAt,value
2022-10-06T03:59:15.235Z,20.60
2022-10-06T04:00:13.575Z,20.53
2022-10-06T04:01:13.607Z,20.57
2022-10-06T04:02:13.658Z,20.54
2022-10-06T04:03:13.552Z,20.51
2022-10-06T04:04:15.184Z,20.60
2022-10-06T04:05:13.524Z,20.49
2022-10-06T04:06:13.515Z,20.57
2022-10-06T04:07:13.508Z,20.64
2022-10-06T04:08:15.161Z,20.57
2022-10-06T04:09:16.030Z,20.58
2022-10-06T04:10:15.166Z,20.57
2022-10-06T04:11:15.161Z,20.57
2022-10-06T04:12:15.172Z,20.57
2022-10-06T04:13:15.191Z,20.61
2022-10-06T04:14:14.677Z,20.72
2022-10-06T04:15:15.175Z,20.61
2022-10-06T04:16:15.220Z,20.71
2022-10-06T04:17:15.174Z,20.66
2022-10-06T04:18:15.682Z,20.66
2022-10-06T04:19:15.168Z,20.71
2022-10-06T04:20:15.177Z,20.78
2022-10-06T04:21:15.172Z,20.79
2022-10-06T04:22:15.167Z,20.81
2022-10-06T04:23:14.445Z,20.71
2022-10-06T04:24:13.437Z,20.79
2022-10-06T04:25:15.199Z,20.81
2022-10-06T04:26:13.435Z,20.82
2022-10-06T04:27:13.422Z,20.79
2022-10-06T04:28:15.242Z,20.78
2022-10-06T04:29:14.696Z,20.85
2022-10-06T04:30:15.196Z,20.90
2022-10-06T04:31:13.497Z,20.91
2022-10-06T04:32:13.408Z,20.91
2022-10-06T04:33:15.203Z,20.96
2022-10-06T04:34:13.523Z,20.91
2022-10-06T04:35:15.195Z,20.94
2022-10-06T04:36:13.400Z,21.01
2022-10-06T04:37:13.389Z,21.01
2022-10-06T04:38:13.392Z,21.01
2022-10-06T04:39:13.390Z,20.97
2022-10-06T04:40:14.698Z,20.96
2022-10-06T04:41:13.382Z,21.00
2022-10-06T04:42:15.238Z,21.03
2022-10-06T04:43:14.374Z,21.03
2022-10-06T04:44:14.367Z,21.00
2022-10-06T04:45:13.363Z,21.00
2022-10-06T04:46:38.018Z,21.01
2022-10-06T04:47:15.206Z,21.11
2022-10-06T04:48:15.702Z,21.01
2022-10-06T04:49:19.389Z,21.03
2022-10-06T04:50:15.194Z,21.08
2022-10-06T04:51:14.721Z,21.06
2022-10-06T04:52:15.197Z,21.04
2022-10-06T04:53:15.207Z,21.09
2022-10-06T04:54:15.218Z,21.06
2022-10-06T04:55:15.200Z,21.11
2022-10-06T04:56:15.212Z,21.12
2022-10-06T04:57:15.202Z,21.12
2022-10-06T04:58:15.204Z,21.18
2022-10-06T04:59:14.328Z,21.12
2022-10-06T05:00:15.232Z,21.09
2022-10-06T05:01:15.298Z,21.16
2022-10-06T05:02:13.327Z,21.19
2022-10-06T05:03:13.316Z,21.16
2022-10-06T05:04:14.304Z,21.22
2022-10-06T05:05:13.301Z,21.25
2022-10-06T05:06:15.235Z,21.21
2022-10-06T05:07:13.294Z,21.22
2022-10-06T05:08:13.289Z,21.22
2022-10-06T05:09:13.294Z,21.19
2022-10-06T05:10:15.210Z,21.19
2022-10-06T05:11:18.199Z,21.19
2022-10-06T05:12:15.216Z,21.30
2022-10-06T05:13:15.221Z,21.31
2022-10-06T05:14:15.225Z,21.25
2022-10-06T05:15:15.213Z,21.25
2022-10-06T05:16:15.252Z,21.22
2022-10-06T05:17:15.226Z,21.25
2022-10-06T05:18:15.224Z,21.22
2022-10-06T05:19:15.231Z,21.23
2022-10-06T05:20:15.216Z,21.21
2022-10-06T05:21:15.242Z,21.25
2022-10-06T05:22:15.218Z,21.22
2022-10-06T05:23:15.218Z,21.30
2022-10-06T05:24:15.223Z,21.25
2022-10-06T05:25:15.222Z,21.31
2022-10-06T05:26:14.752Z,21.30
2022-10-06T05:27:14.728Z,21.34
2022-10-06T05:28:14.764Z,21.31
2022-10-06T05:29:14.741Z,21.27
2022-10-06T05:30:14.732Z,21.31
2022-10-06T05:31:14.818Z,21.34
2022-10-06T05:32:14.740Z,21.31
2022-10-06T05:33:13.216Z,21.34
2022-10-06T05:34:14.277Z,21.36
2022-10-06T05:35:13.200Z,21.34
2022-10-06T05:36:13.197Z,21.31
2022-10-06T05:37:13.191Z,21.34
2022-10-06T05:38:13.189Z,21.28
2022-10-06T05:39:14.746Z,21.36
2022-10-06T05:40:14.249Z,21.31
2022-10-06T05:41:14.741Z,21.37
2022-10-06T05:42:14.810Z,21.36
2022-10-06T05:43:14.176Z,21.31
2022-10-06T05:44:14.752Z,21.38
2022-10-06T05:45:14.789Z,21.37
2022-10-06T05:46:15.809Z,21.36
2022-10-06T05:47:14.980Z,21.36
2022-10-06T05:49:15.747Z,21.46
2022-10-06T05:50:27.933Z,21.36
2022-10-06T05:51:13.352Z,21.38
2022-10-06T05:52:13.148Z,21.38
2022-10-06T05:53:17.853Z,21.36
2022-10-06T05:54:14.788Z,21.41
2022-10-06T05:55:14.742Z,21.41
2022-10-06T05:56:13.761Z,21.41
2022-10-06T05:57:18.855Z,21.45
2022-10-06T05:58:21.159Z,21.38
2022-10-06T05:59:13.121Z,21.38
2022-10-06T06:00:22.333Z,21.51
2022-10-06T06:01:13.755Z,21.45
2022-10-06T06:02:15.497Z,21.53
2022-10-06T06:03:15.474Z,21.49
2022-10-06T06:04:14.303Z,21.48
2022-10-06T06:05:14.755Z,21.53
2022-10-06T06:06:13.172Z,21.46
2022-10-06T06:07:13.119Z,21.52
2022-10-06T06:08:13.112Z,21.52
2022-10-06T06:09:14.773Z,21.46
2022-10-06T06:10:13.088Z,21.48
2022-10-06T06:11:13.090Z,21.49
2022-10-06T06:12:13.098Z,21.49
2022-10-06T06:13:14.782Z,21.46
2022-10-06T06:14:13.077Z,21.46
2022-10-06T06:15:14.763Z,21.55
2022-10-06T06:16:13.100Z,21.58
2022-10-06T06:17:14.794Z,21.51
2022-10-06T06:18:14.779Z,21.55
2022-10-06T06:19:13.063Z,21.46
2022-10-06T06:20:14.783Z,21.58
2022-10-06T06:21:13.067Z,21.52
2022-10-06T06:22:14.856Z,21.59
2022-10-06T06:23:14.782Z,21.49
2022-10-06T06:24:14.797Z,21.58
2022-10-06T06:25:14.790Z,21.62
2022-10-06T06:26:14.789Z,21.58
2022-10-06T06:27:14.771Z,21.59
2022-10-06T06:28:14.957Z,21.67
2022-10-06T06:29:14.026Z,21.68
2022-10-06T06:30:14.774Z,21.64
2022-10-06T06:31:19.170Z,21.66
2022-10-06T06:32:14.819Z,21.64
2022-10-06T06:33:14.860Z,21.76
2022-10-06T06:34:14.819Z,21.73
2022-10-06T06:35:14.782Z,21.76
2022-10-06T06:36:14.780Z,21.77
2022-10-06T06:37:15.500Z,21.83
2022-10-06T06:38:14.838Z,21.82
2022-10-06T06:39:14.790Z,21.82
2022-10-06T06:40:13.098Z,21.85
2022-10-06T06:41:14.808Z,21.86
2022-10-06T06:42:12.994Z,21.93
2022-10-06T06:43:12.985Z,21.93
2022-10-06T06:44:14.800Z,21.92
2022-10-06T06:45:14.792Z,21.94
2022-10-06T06:46:14.973Z,22.00
2022-10-06T06:47:14.796Z,22.05
2022-10-06T06:48:14.797Z,22.11
2022-10-06T06:49:14.815Z,22.05
2022-10-06T06:50:14.845Z,22.12
2022-10-06T06:51:14.791Z,22.12
2022-10-06T06:52:14.916Z,22.12
2022-10-06T06:53:16.189Z,22.24
2022-10-06T06:54:14.817Z,22.09
2022-10-06T06:55:14.834Z,22.23
2022-10-06T06:56:14.816Z,22.30
2022-10-06T06:57:14.797Z,22.18
2022-10-06T06:58:14.823Z,22.31
2022-10-06T06:59:14.855Z,22.36
2022-10-06T07:00:14.817Z,22.33
2022-10-06T07:01:28.876Z,22.33
2022-10-06T07:02:14.909Z,22.38
2022-10-06T07:03:14.847Z,22.44
2022-10-06T07:04:14.803Z,22.44
2022-10-06T07:05:14.829Z,22.39
2022-10-06T07:06:15.442Z,22.48
2022-10-06T07:07:15.148Z,22.42
2022-10-06T07:08:15.215Z,22.51
2022-10-06T07:09:15.889Z,22.48
2022-10-06T07:10:14.877Z,22.46
2022-10-06T07:11:12.915Z,22.44
2022-10-06T07:12:13.078Z,22.55
2022-10-06T07:13:13.348Z,22.57
2022-10-06T07:14:15.824Z,22.54
2022-10-06T07:15:12.917Z,22.60
2022-10-06T07:16:12.956Z,22.59
2022-10-06T07:17:14.295Z,22.67
2022-10-06T07:18:16.839Z,22.71
2022-10-06T07:19:12.902Z,22.76
2022-10-06T07:20:14.840Z,22.81
2022-10-06T07:21:12.896Z,22.86
2022-10-06T07:22:13.834Z,22.84
2022-10-06T07:23:14.909Z,22.86
2022-10-06T07:24:13.188Z,22.84
2022-10-06T07:25:14.938Z,22.92
2022-10-06T07:26:12.930Z,22.97
2022-10-06T07:27:13.875Z,22.94
2022-10-06T07:28:15.901Z,22.99
2022-10-06T07:29:14.847Z,22.99
2022-10-06T07:30:12.987Z,23.04
2022-10-06T07:31:14.857Z,23.06
2022-10-06T07:32:13.115Z,23.07
2022-10-06T07:33:14.856Z,23.09
2022-10-06T07:34:14.905Z,23.07
2022-10-06T07:35:12.953Z,23.10
2022-10-06T07:36:28.422Z,23.21
2022-10-06T07:37:12.861Z,23.24
2022-10-06T07:38:14.775Z,23.22
2022-10-06T07:39:16.013Z,23.28
2022-10-06T07:40:15.021Z,23.24
2022-10-06T07:41:20.631Z,23.21
2022-10-06T07:42:14.878Z,23.38
2022-10-06T07:43:12.948Z,23.40
2022-10-06T07:44:12.882Z,23.37
2022-10-06T07:45:14.356Z,23.37
2022-10-06T07:46:13.030Z,23.44
2022-10-06T07:47:13.372Z,23.44
2022-10-06T07:48:15.882Z,23.42
2022-10-06T07:49:12.844Z,23.48
2022-10-06T07:50:12.863Z,23.53
2022-10-06T07:51:12.838Z,23.53
2022-10-06T07:52:14.353Z,23.59
2022-10-06T07:53:15.248Z,23.60
2022-10-06T07:54:14.373Z,23.59
2022-10-06T07:55:12.883Z,23.71
2022-10-06T07:56:15.595Z,23.71
2022-10-06T07:57:12.858Z,23.62
2022-10-06T07:58:15.452Z,23.75
2022-10-06T07:59:14.499Z,23.77
2022-10-06T08:00:12.843Z,23.78
2022-10-06T08:01:14.388Z,23.78
2022-10-06T08:02:13.994Z,23.77
2022-10-06T08:03:14.482Z,23.79
2022-10-06T08:04:14.374Z,23.89
2022-10-06T08:05:14.362Z,23.90
2022-10-06T08:06:14.409Z,23.92
2022-10-06T08:07:14.399Z,23.99
2022-10-06T08:08:14.363Z,23.99
2022-10-06T08:09:14.882Z,24.02
2022-10-06T08:10:14.378Z,24.03
2022-10-06T08:11:12.879Z,24.04
2022-10-06T08:12:12.818Z,24.11
2022-10-06T08:13:12.822Z,24.12
2022-10-06T08:14:12.821Z,24.12
2022-10-06T08:15:12.810Z,24.11
2022-10-06T08:16:14.439Z,24.14
2022-10-06T08:17:14.378Z,24.15
2022-10-06T08:18:33.696Z,24.19
2022-10-06T08:19:14.388Z,24.19
2022-10-06T08:20:14.372Z,24.15
2022-10-06T08:21:14.372Z,24.18
2022-10-06T08:22:14.451Z,24.21
2022-10-06T08:23:14.426Z,24.22
2022-10-06T08:24:14.431Z,24.30
2022-10-06T08:25:14.929Z,24.30
2022-10-06T08:26:14.378Z,24.27
2022-10-06T08:27:14.377Z,24.29
2022-10-06T08:28:14.473Z,24.37
2022-10-06T08:29:14.408Z,24.39
2022-10-06T08:30:14.382Z,24.30
2022-10-06T08:31:14.444Z,24.39
2022-10-06T08:32:13.953Z,24.44
2022-10-06T08:33:14.414Z,24.48
2022-10-06T08:34:12.801Z,24.51
2022-10-06T08:35:12.801Z,24.52
2022-10-06T08:36:14.407Z,24.46
2022-10-06T08:37:20.185Z,24.56
2022-10-06T08:38:12.794Z,24.56
2022-10-06T08:39:14.398Z,24.48
2022-10-06T08:40:12.859Z,24.51
2022-10-06T08:41:12.801Z,24.63
2022-10-06T08:42:12.796Z,24.66
2022-10-06T08:43:12.790Z,24.61
2022-10-06T08:44:15.421Z,24.66
2022-10-06T08:45:13.193Z,24.64
2022-10-06T08:46:12.831Z,24.66
2022-10-06T08:47:12.789Z,24.71
2022-10-06T08:48:14.499Z,24.70
2022-10-06T08:49:13.590Z,24.71
2022-10-06T08:50:14.477Z,24.80
2022-10-06T08:51:14.399Z,24.67
2022-10-06T08:52:14.415Z,24.82
2022-10-06T08:53:15.545Z,24.80
2022-10-06T08:54:17.424Z,24.69
2022-10-06T08:55:14.479Z,24.77
2022-10-06T08:56:13.860Z,24.74
2022-10-06T08:57:14.478Z,24.87
2022-10-06T08:58:12.795Z,24.93
2022-10-06T08:59:14.708Z,24.92
2022-10-06T09:00:18.143Z,24.87
2022-10-06T09:01:12.882Z,24.94
2022-10-06T09:02:14.488Z,24.96
2022-10-06T09:03:12.827Z,24.97
2022-10-06T09:04:12.787Z,25.00
2022-10-06T09:05:12.780Z,25.04
2022-10-06T09:06:12.795Z,24.96
2022-10-06T09:07:14.425Z,25.01
2022-10-06T09:08:12.862Z,25.02
2022-10-06T09:09:12.875Z,25.02
2022-10-06T09:10:12.784Z,25.02
2022-10-06T09:11:14.449Z,25.04
2022-10-06T09:12:12.883Z,25.15
2022-10-06T09:13:18.402Z,25.09
2022-10-06T09:14:12.863Z,25.15
2022-10-06T09:15:12.790Z,25.20
2022-10-06T09:16:12.840Z,25.15
2022-10-06T09:17:14.460Z,25.24
2022-10-06T09:18:12.778Z,25.20
2022-10-06T09:19:12.797Z,25.33
2022-10-06T09:20:12.804Z,25.23
2022-10-06T09:21:12.784Z,25.32
2022-10-06T09:22:14.470Z,25.30
2022-10-06T09:23:14.474Z,25.29
2022-10-06T09:24:12.781Z,25.38
2022-10-06T09:25:12.899Z,25.33
2022-10-06T09:26:14.033Z,25.38
2022-10-06T09:27:15.491Z,25.37
2022-10-06T09:28:13.754Z,25.49
2022-10-06T09:29:14.974Z,25.45
2022-10-06T09:30:12.788Z,25.45
2022-10-06T09:31:12.819Z,25.48
2022-10-06T09:32:17.014Z,25.59
2022-10-06T09:33:13.491Z,25.56
2022-10-06T09:34:13.073Z,25.56
2022-10-06T09:35:15.627Z,25.57
2022-10-06T09:36:12.959Z,25.57
2022-10-06T09:37:20.469Z,25.63
2022-10-06T09:38:12.862Z,25.56
2022-10-06T09:39:12.868Z,25.62
2022-10-06T09:40:12.841Z,25.63
2022-10-06T09:41:12.804Z,25.64
2022-10-06T09:42:12.864Z,25.70
2022-10-06T09:43:19.896Z,25.63
2022-10-06T09:44:19.707Z,25.74
2022-10-06T09:45:13.998Z,25.76
2022-10-06T09:46:15.573Z,25.79
2022-10-06T09:47:15.037Z,25.76
2022-10-06T09:48:13.909Z,25.85
2022-10-06T09:50:14.051Z,25.88
2022-10-06T09:51:12.833Z,25.86
2022-10-06T09:52:14.481Z,25.91
2022-10-06T09:53:14.894Z,25.86
2022-10-06T09:54:14.614Z,25.93
2022-10-06T09:55:14.478Z,25.97
2022-10-06T09:56:14.474Z,25.96
2022-10-06T09:57:14.496Z,25.97
2022-10-06T09:58:21.463Z,25.99
2022-10-06T09:59:12.833Z,25.94
2022-10-06T10:00:14.471Z,25.96
2022-10-06T10:01:14.523Z,25.94
2022-10-06T10:02:14.493Z,25.97
2022-10-06T10:13:21.062Z,26.15
2022-10-06T10:14:19.525Z,26.11
2022-10-06T10:15:19.120Z,26.17
2022-10-06T10:16:20.180Z,26.22
2022-10-06T10:17:20.036Z,26.26
2022-10-06T10:18:20.038Z,26.31
2022-10-06T10:19:30.675Z,26.31
2022-10-06T10:20:19.037Z,26.35
2022-10-06T10:21:20.625Z,26.35
2022-10-06T10:22:20.018Z,26.41
2022-10-06T10:23:21.625Z,26.31
2022-10-06T10:24:20.634Z,26.44
2022-10-06T10:25:20.036Z,26.47
2022-10-06T10:26:20.634Z,26.49
2022-10-06T10:27:21.077Z,26.50
2022-10-06T10:28:20.685Z,26.56
2022-10-06T10:29:21.463Z,26.57
2022-10-06T10:30:19.082Z,26.60
2022-10-06T10:31:19.857Z,26.59
2022-10-06T10:32:27.643Z,26.60
2022-10-06T10:33:23.788Z,26.67
2022-10-06T10:34:26.153Z,26.64
2022-10-06T10:35:47.274Z,26.68
2022-10-06T10:36:19.777Z,26.61
2022-10-06T10:37:54.719Z,26.74
2022-10-06T10:38:19.776Z,26.63
2022-10-06T10:39:20.174Z,26.63
2022-10-06T10:40:19.050Z,26.59
2022-10-06T10:41:20.666Z,26.60
2022-10-06T10:42:19.112Z,26.61
2022-10-06T10:43:21.677Z,26.61
2022-10-06T10:44:25.203Z,26.59
2022-10-06T10:45:19.136Z,26.56
2022-10-06T10:46:19.496Z,26.50
2022-10-06T10:47:20.710Z,26.56
2022-10-06T10:48:19.107Z,26.41
2022-10-06T10:49:19.349Z,26.47
2022-10-06T10:50:25.102Z,26.30
2022-10-06T10:51:19.665Z,26.27
2022-10-06T10:52:21.355Z,26.45
2022-10-06T10:54:20.436Z,26.39
2022-10-06T10:55:19.187Z,26.37
2022-10-06T10:56:20.694Z,26.42
2022-10-06T10:57:20.070Z,26.39
2022-10-06T10:58:20.663Z,26.44
2022-10-06T10:59:20.712Z,26.31
2022-10-06T11:00:20.721Z,26.39
2022-10-06T11:01:20.733Z,26.41
2022-10-06T11:02:20.797Z,26.37
2022-10-06T11:03:20.694Z,26.35
2022-10-06T11:04:20.688Z,26.38
2022-10-06T11:05:23.091Z,26.23
2022-10-06T11:07:20.677Z,26.31
2022-10-06T11:08:20.696Z,26.34
2022-10-06T11:09:20.659Z,26.42
2022-10-06T11:11:20.699Z,26.44
2022-10-06T11:12:19.088Z,26.49
2022-10-06T11:13:20.931Z,26.53
2022-10-06T11:14:28.455Z,26.57
2022-10-06T11:15:25.293Z,26.67
2022-10-06T11:16:19.688Z,26.78
2022-10-06T11:17:20.815Z,26.87
2022-10-06T11:18:21.574Z,26.91
2022-10-06T11:19:20.678Z,27.01
2022-10-06T11:20:19.267Z,27.05
2022-10-06T11:21:20.932Z,27.19
2022-10-06T11:22:19.791Z,27.24
2022-10-06T11:23:24.847Z,27.28
2022-10-06T11:24:20.610Z,27.42
2022-10-06T11:25:20.477Z,27.41
2022-10-06T11:26:19.774Z,27.55
2022-10-06T11:27:19.390Z,27.69
2022-10-06T11:28:26.044Z,27.69
2022-10-06T11:29:22.321Z,27.83
2022-10-06T11:30:19.990Z,27.84
2022-10-06T11:31:22.698Z,27.87
2022-10-06T11:32:20.146Z,27.84
2022-10-06T11:33:20.440Z,27.91
2022-10-06T11:34:19.891Z,28.02
2022-10-06T11:35:20.311Z,28.02
2022-10-06T11:36:27.959Z,28.27
2022-10-06T11:37:21.645Z,28.30
2022-10-06T11:38:20.825Z,28.36
2022-10-06T11:39:19.207Z,28.51
2022-10-06T11:40:19.213Z,28.63
2022-10-06T11:41:23.130Z,28.63
2022-10-06T11:42:19.247Z,28.79
2022-10-06T11:43:19.274Z,28.88
2022-10-06T11:44:19.204Z,28.97
2022-10-06T11:45:24.153Z,29.06
2022-10-06T11:46:19.234Z,29.13
2022-10-06T11:47:20.801Z,29.23
2022-10-06T11:48:20.227Z,29.36
2022-10-06T11:49:19.176Z,29.39
2022-10-06T11:50:19.174Z,29.51
2022-10-06T11:51:19.176Z,29.61
2022-10-06T11:52:21.163Z,29.75
2022-10-06T11:53:19.392Z,29.82
2022-10-06T11:54:27.659Z,29.94
2022-10-06T11:55:19.585Z,30.07
2022-10-06T11:56:19.198Z,30.07
2022-10-06T11:57:20.650Z,30.19
2022-10-06T11:59:20.729Z,30.54
2022-10-06T12:00:19.215Z,30.54
2022-10-06T12:01:19.240Z,30.64
2022-10-06T12:02:21.026Z,30.78
2022-10-06T12:03:19.445Z,30.84
2022-10-06T12:04:24.814Z,30.89
2022-10-06T12:06:21.240Z,31.12
2022-10-06T12:07:19.375Z,31.21
2022-10-06T12:08:19.274Z,31.28
2022-10-06T12:09:19.416Z,31.38
2022-10-06T12:10:19.270Z,31.45
2022-10-06T12:11:20.934Z,31.50
2022-10-06T12:12:21.280Z,31.67
2022-10-06T12:13:51.332Z,31.74
2022-10-06T12:17:20.011Z,32.20
2022-10-06T12:18:23.204Z,32.19
2022-10-06T12:19:21.253Z,32.16
2022-10-06T12:20:27.357Z,32.13
2022-10-06T12:21:25.764Z,32.23
2022-10-06T12:22:21.252Z,32.20
2022-10-06T12:23:21.259Z,32.30
2022-10-06T12:24:21.262Z,32.34
2022-10-06T12:25:21.244Z,32.46
2022-10-06T12:26:21.313Z,32.54
2022-10-06T12:27:22.053Z,32.68
2022-10-06T12:28:19.432Z,32.79
2022-10-06T12:29:19.359Z,32.76
2022-10-06T12:30:21.263Z,32.93
2022-10-06T12:31:21.276Z,33.01
2022-10-06T12:32:21.270Z,32.98
2022-10-06T12:33:21.254Z,33.12
2022-10-06T12:34:21.274Z,33.16
2022-10-06T12:35:21.257Z,33.26
2022-10-06T12:36:21.355Z,33.43
2022-10-06T12:37:19.480Z,33.55
2022-10-06T12:38:21.279Z,33.53
2022-10-06T12:39:21.278Z,33.58
2022-10-06T12:40:21.283Z,33.61
2022-10-06T12:41:21.263Z,33.71
2022-10-06T12:42:21.264Z,33.71
2022-10-06T12:43:21.288Z,33.84
2022-10-06T12:44:21.302Z,33.84
2022-10-06T12:45:21.306Z,34.00
2022-10-06T12:46:21.305Z,34.08
2022-10-06T12:47:21.345Z,34.08
2022-10-06T12:48:21.327Z,34.22
2022-10-06T12:49:21.274Z,34.26
2022-10-06T12:50:21.479Z,34.33
2022-10-06T12:51:21.373Z,34.46
2022-10-06T12:52:21.307Z,34.54
2022-10-06T12:53:21.309Z,34.51
2022-10-06T12:54:21.329Z,34.69
2022-10-06T12:55:21.282Z,34.64
2022-10-06T12:56:21.317Z,34.79
2022-10-06T12:57:21.360Z,34.72
2022-10-06T12:59:19.572Z,34.84
2022-10-06T13:00:21.393Z,34.97
2022-10-06T13:01:19.629Z,34.94
2022-10-06T13:02:21.390Z,34.99
2022-10-06T13:03:21.316Z,35.06
2022-10-06T13:04:21.302Z,35.12
2022-10-06T13:05:21.325Z,35.08
2022-10-06T13:06:21.328Z,35.24
2022-10-06T13:07:20.631Z,35.26
2022-10-06T13:08:19.714Z,35.26
2022-10-06T13:09:19.755Z,35.33
2022-10-06T13:10:19.676Z,35.45
2022-10-06T13:11:21.340Z,35.45
2022-10-06T13:12:19.690Z,35.50
2022-10-06T13:13:19.659Z,35.49
2022-10-06T13:14:21.345Z,35.53
2022-10-06T13:16:19.725Z,35.43
2022-10-06T13:17:21.311Z,35.53
2022-10-06T13:18:20.758Z,35.57
2022-10-06T13:19:21.381Z,35.60
2022-10-06T13:20:21.340Z,35.60
2022-10-06T13:21:21.317Z,35.68
2022-10-06T13:22:21.316Z,35.71
2022-10-06T13:23:21.337Z,35.61
2022-10-06T13:24:21.349Z,35.42
2022-10-06T13:25:21.320Z,35.11
2022-10-06T13:26:21.320Z,34.84
2022-10-06T13:27:20.752Z,34.79
2022-10-06T13:28:20.873Z,34.89
2022-10-06T13:29:20.789Z,34.77
2022-10-06T13:30:20.772Z,34.55
2022-10-06T13:31:20.840Z,34.49
2022-10-06T13:32:20.785Z,34.24
2022-10-06T13:33:20.796Z,33.93
2022-10-06T13:34:21.332Z,33.87
2022-10-06T13:35:20.809Z,33.87
2022-10-06T13:36:21.365Z,34.00
2022-10-06T13:37:20.901Z,34.12
2022-10-06T13:38:21.374Z,34.15
2022-10-06T13:39:20.905Z,34.33
2022-10-06T13:40:21.871Z,34.33
2022-10-06T13:41:19.851Z,34.41
2022-10-06T13:42:21.352Z,34.39
2022-10-06T13:43:21.893Z,34.43
2022-10-06T13:44:21.850Z,34.52
2022-10-06T13:45:22.118Z,34.59
2022-10-06T13:46:23.976Z,34.75
2022-10-06T13:47:21.906Z,34.77
2022-10-06T13:48:20.025Z,34.79
2022-10-06T13:49:21.211Z,34.87
2022-10-06T13:50:20.300Z,34.84
2022-10-06T13:51:21.872Z,34.96
2022-10-06T13:52:21.890Z,34.94
2022-10-06T13:53:21.874Z,34.99
2022-10-06T13:54:21.867Z,35.11
2022-10-06T13:55:21.867Z,35.08
2022-10-06T13:56:21.912Z,35.09
2022-10-06T13:57:22.060Z,35.15
2022-10-06T13:58:21.859Z,35.21
2022-10-06T13:59:21.914Z,35.23
2022-10-06T14:00:21.868Z,35.38
2022-10-06T14:01:23.029Z,35.33
2022-10-06T14:02:21.925Z,35.23
2022-10-06T14:03:21.930Z,35.27
2022-10-06T14:04:21.879Z,35.42
2022-10-06T14:05:21.879Z,35.43
2022-10-06T14:06:21.871Z,35.39
2022-10-06T14:07:21.869Z,35.46
2022-10-06T14:08:21.884Z,35.45
2022-10-06T14:09:21.874Z,35.43
2022-10-06T14:10:21.942Z,35.55
2022-10-06T14:11:21.939Z,35.47
2022-10-06T14:12:21.877Z,35.53
2022-10-06T14:13:21.877Z,35.42
2022-10-06T14:14:21.914Z,35.46
2022-10-06T14:15:21.890Z,35.43
2022-10-06T14:16:22.016Z,35.50
2022-10-06T14:17:21.881Z,35.45
2022-10-06T14:18:21.929Z,35.38
2022-10-06T14:19:21.890Z,35.46
2022-10-06T14:20:21.899Z,35.43
2022-10-06T14:21:21.907Z,35.38
2022-10-06T14:22:21.897Z,35.45
2022-10-06T14:23:21.893Z,35.30
2022-10-06T14:24:21.895Z,35.38
2022-10-06T14:25:21.909Z,35.24
2022-10-06T14:26:21.907Z,35.26
2022-10-06T14:27:21.929Z,35.15
2022-10-06T14:28:21.955Z,35.16
2022-10-06T14:29:21.911Z,35.09
2022-10-06T14:30:21.899Z,34.96
2022-10-06T14:31:22.028Z,34.99
2022-10-06T14:32:21.902Z,34.84
2022-10-06T14:33:20.212Z,34.77
2022-10-06T14:34:21.211Z,34.83
2022-10-06T14:35:20.222Z,34.67
2022-10-06T14:36:21.418Z,34.58
2022-10-06T14:37:21.935Z,34.46
2022-10-06T14:38:21.253Z,34.27
2022-10-06T14:39:21.910Z,34.24
2022-10-06T14:40:21.910Z,34.02
2022-10-06T14:41:22.915Z,33.87
2022-10-06T14:42:21.944Z,33.74
2022-10-06T14:43:21.286Z,33.62
2022-10-06T14:44:21.285Z,33.48
2022-10-06T14:45:20.284Z,33.28
2022-10-06T14:46:20.324Z,33.06
2022-10-06T14:47:21.933Z,33.03
2022-10-06T14:48:20.316Z,32.80
2022-10-06T14:49:20.309Z,32.56
2022-10-06T14:50:21.942Z,32.27
2022-10-06T14:51:20.322Z,32.17
2022-10-06T14:52:21.931Z,32.09
2022-10-06T14:53:21.335Z,31.94
2022-10-06T14:54:21.929Z,31.67
2022-10-06T14:55:21.942Z,31.47
2022-10-06T14:56:20.343Z,31.40
2022-10-06T14:57:21.931Z,31.26
2022-10-06T14:58:20.357Z,31.01
2022-10-06T14:59:22.015Z,30.97
2022-10-06T15:00:21.974Z,30.78
2022-10-06T15:01:21.957Z,30.69
2022-10-06T15:02:20.497Z,30.56
2022-10-06T15:03:22.055Z,30.35
2022-10-06T15:04:20.384Z,30.28
2022-10-06T15:05:20.384Z,30.09
2022-10-06T15:06:21.955Z,30.03
2022-10-06T15:07:20.402Z,29.82
2022-10-06T15:08:21.943Z,29.67
2022-10-06T15:09:21.951Z,29.54
2022-10-06T15:10:21.944Z,29.39
2022-10-06T15:11:21.961Z,29.30
2022-10-06T15:12:21.950Z,29.21
2022-10-06T15:13:21.948Z,29.10
2022-10-06T15:14:21.973Z,28.90
2022-10-06T15:15:21.965Z,28.82
2022-10-06T15:16:21.968Z,28.79
2022-10-06T15:17:21.963Z,28.64
2022-10-06T15:18:21.956Z,28.55
2022-10-06T15:19:21.955Z,28.36
2022-10-06T15:20:21.956Z,28.38
2022-10-06T15:21:21.973Z,28.16
2022-10-06T15:22:20.435Z,28.09
2022-10-06T15:23:21.974Z,28.03
2022-10-06T15:24:20.435Z,27.91
2022-10-06T15:25:20.439Z,27.72
2022-10-06T15:26:22.012Z,27.62
2022-10-06T15:27:24.726Z,27.57
2022-10-06T15:28:23.526Z,27.52
2022-10-06T15:29:20.451Z,27.43
2022-10-06T15:30:20.448Z,27.34
2022-10-06T15:31:20.540Z,27.18
2022-10-06T15:32:21.986Z,27.16
2022-10-06T15:33:22.503Z,27.01
2022-10-06T15:34:20.460Z,26.94
2022-10-06T15:35:20.453Z,26.91
2022-10-06T15:36:20.458Z,26.79
2022-10-06T15:37:22.034Z,26.69
2022-10-06T15:38:21.988Z,26.67
2022-10-06T15:39:20.463Z,26.54
2022-10-06T15:40:21.987Z,26.53
2022-10-06T15:41:21.988Z,26.38
2022-10-06T15:42:21.986Z,26.37
2022-10-06T15:43:22.020Z,26.22
2022-10-06T15:44:21.996Z,26.19
2022-10-06T15:45:21.985Z,26.19
2022-10-06T15:46:22.072Z,26.09
2022-10-06T15:47:22.000Z,26.01
2022-10-06T15:48:21.996Z,25.88
2022-10-06T15:49:21.991Z,25.86
2022-10-06T15:50:21.985Z,25.75
2022-10-06T15:51:21.994Z,25.71
2022-10-06T15:52:22.008Z,25.70
2022-10-06T15:53:21.997Z,25.59
2022-10-06T15:54:22.004Z,25.62
2022-10-06T15:55:21.988Z,25.48
2022-10-06T15:56:21.994Z,25.38
2022-10-06T15:57:22.006Z,25.42
2022-10-06T15:58:22.018Z,25.37
2022-10-06T15:59:22.042Z,25.32
2022-10-06T16:00:22.002Z,25.22
2022-10-06T16:12:31.076Z,24.56
2022-10-06T16:13:31.041Z,24.51
2022-10-06T16:14:30.451Z,24.40
2022-10-06T16:15:31.041Z,24.44
2022-10-06T16:16:31.126Z,24.40
2022-10-06T16:17:31.057Z,24.27
2022-10-06T16:18:31.049Z,24.22
2022-10-06T16:19:31.056Z,24.22
2022-10-06T16:20:31.062Z,24.22
2022-10-06T16:21:31.045Z,24.12
2022-10-06T16:22:31.047Z,24.11
2022-10-06T16:23:29.425Z,24.08
2022-10-06T16:24:29.437Z,24.00
2022-10-06T16:25:30.562Z,24.02
2022-10-06T16:26:29.423Z,23.99
2022-10-06T16:27:33.350Z,23.93
2022-10-06T16:28:29.496Z,23.92
2022-10-06T16:29:31.065Z,23.77
2022-10-06T16:30:30.576Z,23.82
2022-10-06T16:31:29.453Z,23.78
2022-10-06T16:32:29.406Z,23.75
2022-10-06T16:33:30.583Z,23.66
2022-10-06T16:34:29.421Z,23.70
2022-10-06T16:35:29.439Z,23.62
2022-10-06T16:36:29.433Z,23.56
2022-10-06T16:37:29.401Z,23.53
2022-10-06T16:38:30.573Z,23.48
2022-10-06T16:39:29.418Z,23.47
2022-10-06T16:40:29.420Z,23.45
2022-10-06T16:41:29.402Z,23.38
2022-10-06T16:42:29.391Z,23.40
2022-10-06T16:43:31.076Z,23.41
2022-10-06T16:44:31.108Z,23.38
2022-10-06T16:45:31.088Z,23.38
2022-10-06T16:46:31.133Z,23.28
2022-10-06T16:47:31.070Z,23.21
2022-10-06T16:48:31.082Z,23.24
2022-10-06T16:49:29.378Z,23.22
2022-10-06T16:50:50.385Z,23.10
2022-10-06T16:51:31.089Z,23.07
2022-10-06T16:52:31.095Z,23.21
2022-10-06T16:53:31.093Z,23.18
2022-10-06T16:54:31.085Z,23.09
2022-10-06T16:55:31.074Z,23.12
2022-10-06T16:56:31.079Z,23.06
2022-10-06T16:57:31.077Z,23.07
2022-10-06T16:58:31.107Z,23.01
2022-10-06T16:59:31.126Z,22.88
2022-10-06T17:00:31.129Z,22.97
2022-10-06T17:01:31.101Z,22.94
2022-10-06T17:02:31.101Z,22.89
2022-10-06T17:03:31.195Z,22.86
2022-10-06T17:04:31.094Z,22.82
2022-10-06T17:05:31.086Z,22.84
2022-10-06T17:06:31.088Z,22.84
2022-10-06T17:07:31.087Z,22.78
2022-10-06T17:08:31.101Z,22.66
2022-10-06T17:09:31.109Z,22.79
2022-10-06T17:10:31.104Z,22.67
2022-10-06T17:11:29.339Z,22.71
2022-10-06T17:12:29.330Z,22.64
2022-10-06T17:13:29.335Z,22.64
2022-10-06T17:14:30.622Z,22.63
2022-10-06T17:15:33.551Z,22.60
2022-10-06T17:16:29.429Z,22.55
2022-10-06T17:17:31.115Z,22.61
2022-10-06T17:18:30.317Z,22.59
2022-10-06T17:19:31.114Z,22.48
2022-10-06T17:20:29.311Z,22.51
2022-10-06T17:21:48.832Z,22.55
2022-10-06T17:22:29.303Z,22.46
2022-10-06T17:23:31.098Z,22.46
2022-10-06T17:24:31.121Z,22.51